Current | Forecast
Updated: 1:58 AM JST on June 26, 2017
Observed at Yokota AB, Japan
Temperature 70°F
Humidity 87%
Dew Point 66°F
Wind North at 0 mph
Pressure 29.59 in (Rising)
Conditions Mostly Cloudy
Visibility 10.0 miles
UV 0 out of 16
Clouds Mostly Cloudy (BKN) : 11000 ft
Yesterday's Maximum 76°F
Yesterday's Minimum 67°F approx.
Yesterday's Cooling Degree Days 7 approx.
Sunrise4:27 AM JST
Sunset7:02 PM JST
Moon Rise6:36 AM JST
Moon Set8:53 PM JST
Moon PhaseMoon Phase
Waxing Crescent
Raw METARMETAR RJTY 251658Z AUTO 00000KT 10SM BKN110 21/19 A2959 RMK AO2 SLP018 T02130190


Monday
. High: 77° F.
Tuesday
. High: 77° F.
Wednesday
. High: 68° F.
Thursday
. High: 71° F.
Friday
. High: 75° F.
Saturday
. High: 75° F.
Sunday
. High: 75° F.
Monday
. High: 73° F.

Units: English | Metric

Find the Weather for any City, State or Zipcode, or Country:

U.S. State List | Severe Weather | Tropical Storms | Ski Conditions
United States | Canada | Central America | South America | Asia | Europe | Australia | Africa | Islands

Weather Underground

© Copyright 2017
The Weather Company, LLC